Time,TemperatureF,DewpointF,PressureIn,WindDirection,WindDirectionDegrees,WindSpeedMPH,WindSpeedGustMPH,Humidity,HourlyPrecipIn,Conditions,Clouds,dailyrainin,SolarRadiationWatts/m^2,SoftwareType,DateUTC
2013-02-17 00:01:00,16.0,8.0,-100.00,ESE,117,0.0,4.0,71,0.00,,,0.08,0.000000,,2013-02-17 07:01:00,
2013-02-17 00:32:00,17.0,7.0,-100.00,SSE,160,0.0,0.0,63,0.00,,,0.08,0.000000,,2013-02-17 07:32:00,
2013-02-17 00:42:00,17.0,7.0,-100.00,SSE,160,0.0,0.0,63,0.00,,,0.08,0.000000,,2013-02-17 07:42:00,
2013-02-17 00:52:00,17.0,7.0,-100.00,SSE,160,0.0,0.0,63,0.00,,,0.08,0.000000,,2013-02-17 07:52:00,
2013-02-17 01:01:00,17.0,7.0,-100.00,SSE,160,0.0,0.0,63,0.00,,,0.08,0.000000,,2013-02-17 08:01:00,
2013-02-17 01:32:00,14.0,6.0,-100.00,South,176,0.0,2.0,69,0.00,,,0.08,0.000000,,2013-02-17 08:32:00,
2013-02-17 01:42:00,14.0,6.0,-100.00,South,176,0.0,2.0,69,0.00,,,0.08,0.000000,,2013-02-17 08:42:00,
2013-02-17 01:52:00,14.0,6.0,-100.00,South,176,0.0,2.0,69,0.00,,,0.08,0.000000,,2013-02-17 08:52:00,
2013-02-17 02:01:00,14.0,6.0,-100.00,South,176,0.0,2.0,69,0.00,,,0.08,0.000000,,2013-02-17 09:01:00,
2013-02-17 02:21:00,13.0,6.0,-100.00,South,180,0.0,0.0,73,0.00,,,-99.99,0.000000,,2013-02-17 09:21:00,
2013-02-17 02:32:00,13.0,6.0,-100.00,South,180,0.0,0.0,73,0.00,,,-99.99,0.000000,,2013-02-17 09:32:00,
2013-02-17 02:42:00,13.0,6.0,-100.00,South,180,0.0,0.0,73,0.00,,,-99.99,0.000000,,2013-02-17 09:42:00,
2013-02-17 02:52:00,13.0,6.0,-100.00,South,180,0.0,0.0,73,0.00,,,-99.99,0.000000,,2013-02-17 09:52:00,
2013-02-17 03:01:00,13.0,6.0,-100.00,South,180,0.0,0.0,73,0.00,,,-99.99,0.000000,,2013-02-17 10:01:00,
2013-02-17 03:32:00,14.0,5.0,-100.00,NNW,348,0.0,3.0,68,0.00,,,0.08,0.000000,,2013-02-17 10:32:00,
2013-02-17 03:42:00,14.0,5.0,-100.00,NNW,348,0.0,3.0,68,0.00,,,0.08,0.000000,,2013-02-17 10:42:00,
2013-02-17 03:52:00,14.0,5.0,-100.00,NNW,348,0.0,3.0,68,0.00,,,0.08,0.000000,,2013-02-17 10:52:00,
2013-02-17 04:01:00,14.0,5.0,-100.00,NNW,348,0.0,3.0,68,0.00,,,0.08,0.000000,,2013-02-17 11:01:00,
2013-02-17 04:32:00,14.0,9.0,-100.00,SSE,165,3.0,3.0,79,0.00,,,0.08,0.000000,,2013-02-17 11:32:00,
2013-02-17 04:42:00,14.0,9.0,-100.00,SSE,165,3.0,3.0,79,0.00,,,0.08,0.000000,,2013-02-17 11:42:00,
2013-02-17 04:52:00,14.0,9.0,-100.00,SSE,165,3.0,3.0,79,0.00,,,0.08,0.000000,,2013-02-17 11:52:00,
2013-02-17 05:02:00,14.0,9.0,-100.00,SSE,165,3.0,3.0,79,0.00,,,0.08,0.000000,,2013-02-17 12:02:00,
2013-02-17 05:32:00,16.0,9.0,-100.00,South,171,4.0,5.0,72,0.00,,,-99.99,0.000000,,2013-02-17 12:32:00,
2013-02-17 05:42:00,16.0,9.0,-100.00,South,171,4.0,5.0,72,0.00,,,-99.99,0.000000,,2013-02-17 12:42:00,
2013-02-17 05:52:00,16.0,9.0,-100.00,South,171,4.0,5.0,72,0.00,,,-99.99,0.000000,,2013-02-17 12:52:00,
2013-02-17 06:01:00,16.0,9.0,-100.00,South,171,4.0,5.0,72,0.00,,,-99.99,0.000000,,2013-02-17 13:01:00,
2013-02-17 06:32:00,12.0,6.0,-100.00,SSE,166,0.0,5.0,78,0.00,,,-99.99,0.000000,,2013-02-17 13:32:00,
2013-02-17 06:42:00,12.0,6.0,-100.00,SSE,166,0.0,5.0,78,0.00,,,-99.99,0.000000,,2013-02-17 13:42:00,
2013-02-17 06:52:00,12.0,6.0,-100.00,SSE,166,0.0,5.0,78,0.00,,,-99.99,0.000000,,2013-02-17 13:52:00,
2013-02-17 07:01:00,12.0,6.0,-100.00,SSE,166,0.0,5.0,78,0.00,,,-99.99,0.000000,,2013-02-17 14:01:00,
2013-02-17 07:32:00,12.0,4.0,-100.00,SSW,213,0.0,3.0,70,0.00,,,0.08,0.000000,,2013-02-17 14:32:00,
2013-02-17 07:42:00,12.0,4.0,-100.00,SSW,213,0.0,3.0,70,0.00,,,0.08,0.000000,,2013-02-17 14:42:00,
2013-02-17 07:53:00,12.0,4.0,-100.00,SSW,213,0.0,3.0,70,0.00,,,0.08,0.000000,,2013-02-17 14:53:00,
2013-02-17 08:01:00,12.0,4.0,-100.00,SSW,213,0.0,3.0,70,0.00,,,0.08,0.000000,,2013-02-17 15:01:00,
2013-02-17 08:22:00,21.0,9.0,-100.00,ESE,103,0.0,3.0,58,-99.99,,,0.08,50.000000,,2013-02-17 15:22:00,
2013-02-17 08:32:00,21.0,9.0,-100.00,ESE,103,0.0,3.0,58,-99.99,,,0.08,50.000000,,2013-02-17 15:32:00,
2013-02-17 08:42:00,21.0,9.0,-100.00,ESE,103,0.0,3.0,58,-99.99,,,0.08,50.000000,,2013-02-17 15:42:00,
2013-02-17 08:52:00,21.0,9.0,-100.00,ESE,103,0.0,3.0,58,-99.99,,,0.08,50.000000,,2013-02-17 15:52:00,
2013-02-17 09:01:00,21.0,9.0,-100.00,ESE,103,0.0,3.0,58,-99.99,,,0.08,50.000000,,2013-02-17 16:01:00,
2013-02-17 09:32:00,44.0,2.0,-100.00,South,189,5.0,8.0,17,-99.99,,,0.08,287.000000,,2013-02-17 16:32:00,
2013-02-17 09:42:00,44.0,2.0,-100.00,South,189,5.0,8.0,17,-99.99,,,0.08,287.000000,,2013-02-17 16:42:00,
2013-02-17 09:52:00,44.0,2.0,-100.00,South,189,5.0,8.0,17,-99.99,,,0.08,287.000000,,2013-02-17 16:52:00,
2013-02-17 10:02:00,44.0,2.0,-100.00,South,189,5.0,8.0,17,-99.99,,,0.08,287.000000,,2013-02-17 17:02:00,
2013-02-17 10:32:00,48.0,5.0,-100.00,WNW,295,10.0,18.0,17,0.00,,,0.08,491.000000,,2013-02-17 17:32:00,
2013-02-17 10:42:00,48.0,5.0,-100.00,WNW,295,10.0,18.0,17,0.00,,,0.08,491.000000,,2013-02-17 17:42:00,
2013-02-17 10:52:00,48.0,5.0,-100.00,WNW,295,10.0,18.0,17,0.00,,,0.08,491.000000,,2013-02-17 17:52:00,
2013-02-17 11:01:00,48.0,5.0,-100.00,WNW,295,10.0,18.0,17,0.00,,,0.08,491.000000,,2013-02-17 18:01:00,
2013-02-17 11:33:00,51.0,8.0,-100.00,ESE,108,7.0,22.0,17,0.00,,,0.08,652.000000,,2013-02-17 18:33:00,
2013-02-17 11:42:00,51.0,8.0,-100.00,ESE,108,7.0,22.0,17,0.00,,,0.08,652.000000,,2013-02-17 18:42:00,
2013-02-17 11:52:00,51.0,8.0,-100.00,ESE,108,7.0,22.0,17,0.00,,,0.08,652.000000,,2013-02-17 18:52:00,
2013-02-17 12:01:00,51.0,8.0,-100.00,ESE,108,7.0,22.0,17,0.00,,,0.08,652.000000,,2013-02-17 19:01:00,
2013-02-17 12:32:00,51.0,8.0,-100.00,NE,37,9.0,25.0,17,0.00,,,0.08,776.000000,,2013-02-17 19:32:00,
2013-02-17 12:42:00,51.0,8.0,-100.00,NE,37,9.0,25.0,17,0.00,,,0.08,776.000000,,2013-02-17 19:42:00,
2013-02-17 12:52:00,51.0,8.0,-100.00,NE,37,9.0,25.0,17,0.00,,,0.08,776.000000,,2013-02-17 19:52:00,
2013-02-17 13:01:00,51.0,8.0,-100.00,NE,37,9.0,25.0,17,0.00,,,0.08,776.000000,,2013-02-17 20:01:00,
2013-02-17 13:32:00,50.0,7.0,-100.00,SSW,211,9.0,22.0,17,0.00,,,0.06,841.000000,,2013-02-17 20:32:00,
2013-02-17 13:42:00,50.0,7.0,-100.00,SSW,211,9.0,22.0,17,0.00,,,0.06,841.000000,,2013-02-17 20:42:00,
2013-02-17 13:52:00,50.0,7.0,-100.00,SSW,211,9.0,22.0,17,0.00,,,0.06,841.000000,,2013-02-17 20:52:00,
2013-02-17 14:01:00,50.0,7.0,-100.00,SSW,211,9.0,22.0,17,0.00,,,0.06,841.000000,,2013-02-17 21:01:00,
2013-02-17 14:32:00,51.0,8.0,-100.00,SSW,197,10.0,22.0,17,0.00,,,0.03,814.000000,,2013-02-17 21:32:00,
2013-02-17 14:42:00,51.0,8.0,-100.00,SSW,197,10.0,22.0,17,0.00,,,0.03,814.000000,,2013-02-17 21:42:00,
2013-02-17 14:53:00,51.0,8.0,-100.00,SSW,197,10.0,22.0,17,0.00,,,0.03,814.000000,,2013-02-17 21:53:00,
2013-02-17 15:01:00,51.0,8.0,-100.00,SSW,197,10.0,22.0,17,0.00,,,0.03,814.000000,,2013-02-17 22:01:00,
2013-02-17 15:32:00,51.0,9.0,-100.00,West,272,9.0,24.0,18,0.00,,,0.02,714.000000,,2013-02-17 22:32:00,
2013-02-17 15:42:00,51.0,9.0,-100.00,West,272,9.0,24.0,18,0.00,,,0.02,714.000000,,2013-02-17 22:42:00,
2013-02-17 15:52:00,51.0,9.0,-100.00,West,272,9.0,24.0,18,0.00,,,0.02,714.000000,,2013-02-17 22:52:00,
2013-02-17 16:01:00,51.0,9.0,-100.00,West,272,9.0,24.0,18,0.00,,,0.02,714.000000,,2013-02-17 23:01:00,
2013-02-17 16:32:00,49.0,9.0,-100.00,NW,305,8.0,26.0,19,0.00,,,0.00,552.000000,,2013-02-17 23:32:00,
2013-02-17 16:42:00,49.0,9.0,-100.00,NW,305,8.0,26.0,19,0.00,,,0.00,552.000000,,2013-02-17 23:42:00,
2013-02-17 16:52:00,49.0,9.0,-100.00,NW,305,8.0,26.0,19,0.00,,,0.00,552.000000,,2013-02-17 23:52:00,
2013-02-17 17:01:00,49.0,9.0,-100.00,NW,305,8.0,26.0,19,0.00,,,0.00,552.000000,,2013-02-18 00:01:00,
2013-02-17 17:32:00,46.0,8.0,-100.00,SSW,204,8.0,24.0,21,0.00,,,0.00,325.000000,,2013-02-18 00:32:00,
2013-02-17 17:42:00,46.0,8.0,-100.00,SSW,204,8.0,24.0,21,0.00,,,0.00,325.000000,,2013-02-18 00:42:00,
2013-02-17 17:52:00,46.0,8.0,-100.00,SSW,204,8.0,24.0,21,0.00,,,0.00,325.000000,,2013-02-18 00:52:00,
2013-02-17 18:01:00,46.0,8.0,-100.00,SSW,204,8.0,24.0,21,0.00,,,0.00,325.000000,,2013-02-18 01:01:00,
2013-02-17 18:21:00,40.0,9.0,-100.00,SSW,206,6.0,22.0,27,0.00,,,0.00,19.000000,,2013-02-18 01:21:00,
2013-02-17 18:32:00,40.0,9.0,-100.00,SSW,206,6.0,22.0,27,0.00,,,0.00,19.000000,,2013-02-18 01:32:00,
2013-02-17 18:42:00,40.0,9.0,-100.00,SSW,206,6.0,22.0,27,0.00,,,0.00,19.000000,,2013-02-18 01:42:00,
2013-02-17 18:52:00,40.0,9.0,-100.00,SSW,206,6.0,22.0,27,0.00,,,0.00,19.000000,,2013-02-18 01:52:00,
2013-02-17 19:01:00,40.0,9.0,-100.00,SSW,206,6.0,22.0,27,0.00,,,0.00,19.000000,,2013-02-18 02:01:00,
2013-02-17 19:22:00,38.0,11.0,-100.00,NNE,13,4.0,16.0,32,0.00,,,0.00,1.000000,,2013-02-18 02:22:00,
2013-02-17 19:32:00,38.0,11.0,-100.00,NNE,13,4.0,16.0,32,0.00,,,0.00,1.000000,,2013-02-18 02:32:00,
2013-02-17 19:42:00,38.0,11.0,-100.00,NNE,13,4.0,16.0,32,0.00,,,0.00,1.000000,,2013-02-18 02:42:00,
2013-02-17 19:52:00,38.0,11.0,-100.00,NNE,13,4.0,16.0,32,0.00,,,0.00,1.000000,,2013-02-18 02:52:00,
2013-02-17 20:01:00,38.0,11.0,-100.00,NNE,13,4.0,16.0,32,0.00,,,0.00,1.000000,,2013-02-18 03:01:00,
2013-02-17 20:32:00,35.0,11.0,-100.00,NNE,18,6.0,14.0,36,0.00,,,0.00,0.000000,,2013-02-18 03:32:00,
2013-02-17 20:42:00,35.0,11.0,-100.00,NNE,18,6.0,14.0,36,0.00,,,0.00,0.000000,,2013-02-18 03:42:00,
2013-02-17 20:52:00,35.0,11.0,-100.00,NNE,18,6.0,14.0,36,0.00,,,0.00,0.000000,,2013-02-18 03:52:00,
2013-02-17 21:01:00,35.0,11.0,-100.00,NNE,18,6.0,14.0,36,0.00,,,0.00,0.000000,,2013-02-18 04:01:00,
2013-02-17 21:22:00,34.0,11.0,-100.00,South,186,5.0,18.0,37,0.00,,,0.00,0.000000,,2013-02-18 04:22:00,
2013-02-17 21:32:00,34.0,11.0,-100.00,South,186,5.0,18.0,37,0.00,,,0.00,0.000000,,2013-02-18 04:32:00,
2013-02-17 21:42:00,34.0,11.0,-100.00,South,186,5.0,18.0,37,0.00,,,0.00,0.000000,,2013-02-18 04:42:00,
2013-02-17 21:52:00,34.0,11.0,-100.00,South,186,5.0,18.0,37,0.00,,,0.00,0.000000,,2013-02-18 04:52:00,
2013-02-17 22:01:00,34.0,11.0,-100.00,South,186,5.0,18.0,37,0.00,,,0.00,0.000000,,2013-02-18 05:01:00,
2013-02-17 22:32:00,33.0,11.0,-100.00,South,175,3.0,13.0,39,0.00,,,0.00,0.000000,,2013-02-18 05:32:00,
2013-02-17 22:42:00,33.0,11.0,-100.00,South,175,3.0,13.0,39,0.00,,,0.00,0.000000,,2013-02-18 05:42:00,
2013-02-17 22:52:00,33.0,11.0,-100.00,South,175,3.0,13.0,39,0.00,,,0.00,0.000000,,2013-02-18 05:52:00,
2013-02-17 23:02:00,33.0,11.0,-100.00,South,175,3.0,13.0,39,0.00,,,0.00,0.000000,,2013-02-18 06:02:00,